Time;durP1;ratioP1;P1;durP2;ratioP2;P2;SDS_P1;SDS_P2;PMS_P1;PMS_P2;Temp;Humidity;BMP_temperature;BMP_pressure;BME280_temperature;BME280_humidity;BME280_pressure;Samples;Min_cycle;Max_cycle;Signal;HPM_P1;HPM_P2
2021/06/30 00:01:41;;;;;;;3.87;2.70;;;16.20;99.90;;;;;;5001266;28;20229;-51
2021/06/30 00:04:13;;;;;;;3.43;2.73;;;16.10;99.90;;;;;;5001247;28;20334;-51
2021/06/30 00:06:45;;;;;;;6.80;3.30;;;16.20;99.90;;;;;;5002976;28;20244;-51
2021/06/30 00:09:18;;;;;;;4.17;3.23;;;16.00;99.90;;;;;;4999039;28;20637;-51
2021/06/30 00:11:49;;;;;;;4.10;3.00;;;15.90;99.90;;;;;;4997160;28;20930;-51
2021/06/30 00:14:22;;;;;;;4.33;2.87;;;16.00;99.90;;;;;;4999073;28;20233;-51
2021/06/30 00:16:54;;;;;;;5.20;3.43;;;16.00;99.90;;;;;;4996640;28;20583;-51
2021/06/30 00:19:27;;;;;;;3.70;3.30;;;16.10;99.90;;;;;;4997284;28;20213;-51
2021/06/30 00:21:59;;;;;;;9.23;3.40;;;16.20;99.90;;;;;;4997425;28;20519;-50
2021/06/30 00:24:31;;;;;;;3.53;3.10;;;16.20;99.90;;;;;;4997666;28;21449;-50
2021/06/30 00:27:03;;;;;;;4.80;3.10;;;16.20;99.90;;;;;;5003298;28;20200;-50
2021/06/30 00:29:35;;;;;;;3.50;3.00;;;16.10;99.90;;;;;;5006184;28;20276;-50
2021/06/30 00:32:07;;;;;;;4.30;2.63;;;16.00;99.90;;;;;;5000315;28;20380;-50
2021/06/30 00:34:38;;;;;;;3.90;2.77;;;16.00;99.90;;;;;;5003637;28;20210;-50
2021/06/30 00:37:10;;;;;;;4.57;3.30;;;16.00;99.90;;;;;;4996458;28;21374;-50
2021/06/30 00:39:42;;;;;;;3.43;2.83;;;15.90;99.90;;;;;;5003983;28;20224;-50
2021/06/30 00:42:14;;;;;;;3.73;2.97;;;15.90;99.90;;;;;;4992551;28;20231;-50
2021/06/30 00:44:45;;;;;;;4.37;3.20;;;16.00;99.90;;;;;;5000277;28;20221;-51
2021/06/30 00:47:19;;;;;;;3.73;2.80;;;16.10;99.90;;;;;;4994599;28;20269;-50
2021/06/30 00:49:51;;;;;;;6.47;2.90;;;16.10;99.90;;;;;;4998110;28;21154;-50
2021/06/30 00:52:23;;;;;;;2.70;2.50;;;15.90;99.90;;;;;;4994545;28;20236;-51
2021/06/30 00:54:55;;;;;;;5.13;3.33;;;15.70;99.90;;;;;;4999140;28;20282;-50
2021/06/30 00:57:27;;;;;;;5.77;3.03;;;16.00;99.90;;;;;;4999101;28;20203;-51
2021/06/30 00:59:59;;;;;;;3.37;2.93;;;16.00;99.90;;;;;;4996791;28;20224;-51
2021/06/30 01:02:31;;;;;;;4.77;4.13;;;16.00;99.90;;;;;;4998128;28;20295;-50
2021/06/30 01:05:04;;;;;;;4.37;3.73;;;16.00;99.90;;;;;;5004419;28;20191;-50
2021/06/30 01:07:36;;;;;;;6.70;3.50;;;16.00;99.90;;;;;;5000799;28;20357;-51
2021/06/30 01:10:08;;;;;;;5.10;3.70;;;15.90;99.90;;;;;;5001230;28;20288;-51
2021/06/30 01:12:40;;;;;;;6.13;3.70;;;15.60;99.90;;;;;;5002429;28;20638;-51
2021/06/30 01:15:12;;;;;;;7.07;4.43;;;15.70;99.90;;;;;;5005563;28;20221;-50
2021/06/30 01:17:47;;;;;;;6.47;3.90;;;15.80;99.90;;;;;;5005892;28;20293;-50
2021/06/30 01:20:19;;;;;;;4.27;3.17;;;15.90;99.90;;;;;;5004604;28;20383;-50
2021/06/30 01:23:10;;;;;;;6.37;3.97;;;15.80;99.90;;;;;;5000924;28;20223;-51
2021/06/30 01:25:42;;;;;;;7.07;4.30;;;15.80;99.90;;;;;;5005482;28;20755;-50
2021/06/30 01:28:16;;;;;;;4.53;3.20;;;15.90;99.90;;;;;;5004208;28;20552;-49
2021/06/30 01:30:53;;;;;;;4.33;3.13;;;15.80;99.90;;;;;;5000869;28;20503;-50
2021/06/30 01:33:25;;;;;;;4.63;3.10;;;15.60;99.90;;;;;;5000592;28;20314;-50
2021/06/30 01:35:57;;;;;;;3.40;2.53;;;15.60;99.90;;;;;;4997010;28;20207;-51
2021/06/30 01:38:30;;;;;;;3.67;2.97;;;15.60;99.90;;;;;;4998245;28;20210;-50
2021/06/30 01:41:02;;;;;;;3.97;2.73;;;15.60;99.90;;;;;;5002388;28;20219;-51
2021/06/30 01:43:34;;;;;;;2.90;2.57;;;15.80;99.90;;;;;;5003615;28;20271;-51
2021/06/30 01:46:06;;;;;;;3.93;3.00;;;15.80;99.90;;;;;;5003296;28;20260;-51
2021/06/30 01:48:37;;;;;;;3.27;2.67;;;15.60;99.90;;;;;;5003567;28;20326;-50
2021/06/30 01:51:09;;;;;;;3.10;2.70;;;15.70;99.90;;;;;;5003867;28;20195;-51
2021/06/30 01:53:41;;;;;;;4.13;2.90;;;15.90;99.90;;;;;;5003490;28;20670;-51
2021/06/30 01:56:12;;;;;;;5.23;3.33;;;15.90;99.90;;;;;;4999784;28;20281;-51
2021/06/30 01:58:44;;;;;;;3.93;3.30;;;16.00;99.90;;;;;;5001087;28;20197;-52
2021/06/30 02:01:16;;;;;;;5.83;3.07;;;16.00;99.90;;;;;;5008784;28;20293;-52
2021/06/30 02:03:48;;;;;;;4.10;3.13;;;15.90;99.90;;;;;;4998402;28;20311;-51
2021/06/30 02:06:19;;;;;;;4.17;3.37;;;15.90;99.90;;;;;;5004715;28;20258;-51
2021/06/30 02:08:57;;;;;;;6.30;2.90;;;15.90;99.90;;;;;;5000401;28;20191;-51
2021/06/30 02:11:29;;;;;;;3.27;2.97;;;15.90;99.90;;;;;;5001803;28;20201;-51
2021/06/30 02:14:01;;;;;;;3.07;2.50;;;15.60;99.90;;;;;;4999187;28;20289;-50
2021/06/30 02:16:34;;;;;;;3.33;2.73;;;15.60;99.90;;;;;;4998615;28;20275;-51
2021/06/30 02:19:06;;;;;;;2.63;2.40;;;15.60;99.90;;;;;;4999954;28;20656;-51
2021/06/30 02:21:38;;;;;;;4.70;2.80;;;15.70;99.90;;;;;;5001324;28;20337;-50
2021/06/30 02:24:10;;;;;;;4.60;2.70;;;15.60;99.90;;;;;;4998409;28;20210;-50
2021/06/30 02:26:42;;;;;;;2.70;2.50;;;15.50;99.90;;;;;;4998375;28;20201;-50
2021/06/30 02:29:13;;;;;;;6.03;2.80;;;15.40;99.90;;;;;;5005763;28;20388;-51
2021/06/30 02:31:45;;;;;;;3.00;2.50;;;15.60;99.90;;;;;;4996618;28;20229;-51
2021/06/30 02:34:17;;;;;;;3.50;2.53;;;15.40;99.90;;;;;;4999039;28;20287;-51
2021/06/30 02:36:49;;;;;;;4.67;2.70;;;15.30;99.90;;;;;;5000898;28;20205;-50
2021/06/30 02:39:20;;;;;;;2.50;2.20;;;15.30;99.90;;;;;;5000102;28;20293;-51
2021/06/30 02:41:53;;;;;;;3.40;2.47;;;15.60;99.90;;;;;;5000133;28;20245;-51
2021/06/30 02:44:24;;;;;;;4.23;2.87;;;15.70;99.90;;;;;;5001108;28;20284;-52
2021/06/30 02:46:56;;;;;;;3.50;2.30;;;15.80;99.90;;;;;;4997305;28;20206;-51
2021/06/30 02:49:30;;;;;;;4.00;2.33;;;15.60;99.90;;;;;;5000156;28;20227;-51
2021/06/30 02:52:02;;;;;;;4.30;2.73;;;15.50;99.90;;;;;;4997199;28;20292;-51
2021/06/30 02:54:34;;;;;;;3.00;2.70;;;15.50;99.90;;;;;;5001379;28;20253;-51
2021/06/30 02:57:06;;;;;;;3.73;3.33;;;15.50;99.90;;;;;;4999469;28;20726;-51
2021/06/30 02:59:37;;;;;;;4.40;3.80;;;15.50;99.90;;;;;;5001616;28;20214;-51
2021/06/30 03:02:09;;;;;;;5.77;3.70;;;15.50;99.90;;;;;;4997846;28;20198;-51
2021/06/30 03:04:41;;;;;;;5.37;4.00;;;15.60;99.90;;;;;;4998449;28;20209;-51
2021/06/30 03:07:12;;;;;;;4.43;4.00;;;15.50;99.90;;;;;;4996774;28;20597;-51
2021/06/30 03:09:39;;;;;;;9.40;4.67;;;15.60;99.90;;;;;;4997877;28;20209;-50
2021/06/30 03:12:11;;;;;;;6.40;4.80;;;15.50;99.90;;;;;;5001227;28;20275;-50
2021/06/30 03:14:43;;;;;;;8.47;5.17;;;15.50;99.90;;;;;;5007027;28;20711;-50
2021/06/30 03:17:15;;;;;;;6.63;5.30;;;15.50;99.90;;;;;;4997229;28;20572;-50
2021/06/30 03:19:46;;;;;;;6.53;5.27;;;15.60;99.90;;;;;;5002850;28;20627;-50
2021/06/30 03:22:20;;;;;;;7.70;5.17;;;15.70;99.90;;;;;;4998944;28;20270;-50
2021/06/30 03:24:51;;;;;;;8.63;5.67;;;15.70;99.90;;;;;;5001721;28;20197;-50
2021/06/30 03:27:23;;;;;;;7.43;5.80;;;15.80;99.90;;;;;;5000008;28;20202;-51
2021/06/30 03:29:55;;;;;;;7.00;5.57;;;15.80;99.90;;;;;;5007266;28;20241;-50
2021/06/30 03:32:26;;;;;;;6.40;5.03;;;15.70;99.90;;;;;;5000063;28;20224;-51
2021/06/30 03:34:58;;;;;;;6.27;5.03;;;15.70;99.90;;;;;;4999463;28;20215;-51
2021/06/30 03:37:30;;;;;;;6.13;5.40;;;15.50;99.90;;;;;;4998444;28;20202;-50
2021/06/30 03:40:03;;;;;;;6.73;6.03;;;15.60;99.90;;;;;;5001168;28;20205;-51
2021/06/30 03:42:34;;;;;;;7.77;6.57;;;15.60;99.90;;;;;;4999884;28;20261;-50
2021/06/30 03:45:07;;;;;;;6.37;5.60;;;15.50;99.90;;;;;;4999375;28;20203;-51
2021/06/30 03:47:39;;;;;;;6.50;5.50;;;15.60;99.90;;;;;;4995320;28;20997;-50
2021/06/30 03:50:11;;;;;;;7.50;5.97;;;15.60;99.90;;;;;;4997604;28;20201;-51
2021/06/30 03:52:43;;;;;;;7.70;5.17;;;15.60;99.90;;;;;;4999707;28;20334;-51
2021/06/30 03:55:15;;;;;;;6.00;5.30;;;15.60;99.90;;;;;;5000307;28;20570;-51
2021/06/30 03:57:41;;;;;;;8.53;5.63;;;15.60;99.90;;;;;;5001927;28;20205;-51
2021/06/30 04:00:13;;;;;;;9.03;6.23;;;15.60;99.90;;;;;;5000738;28;20330;-50
2021/06/30 04:02:45;;;;;;;9.73;6.30;;;15.50;99.90;;;;;;5001528;28;20253;-51
2021/06/30 04:05:17;;;;;;;7.73;6.03;;;15.60;99.90;;;;;;5000469;28;20285;-51
2021/06/30 04:07:49;;;;;;;6.93;6.17;;;15.50;99.90;;;;;;4997575;28;20357;-50
2021/06/30 04:10:21;;;;;;;6.97;6.27;;;15.40;99.90;;;;;;5000383;28;20631;-50
2021/06/30 04:12:53;;;;;;;6.33;5.20;;;15.50;99.90;;;;;;5002262;28;20209;-50
2021/06/30 04:15:24;;;;;;;7.93;5.60;;;15.40;99.90;;;;;;5002277;28;20252;-50
2021/06/30 04:17:58;;;;;;;8.47;5.73;;;15.60;99.90;;;;;;4998030;28;20209;-50
2021/06/30 04:20:30;;;;;;;6.20;5.50;;;15.40;99.90;;;;;;5005752;28;20284;-51
2021/06/30 04:23:01;;;;;;;7.23;5.97;;;15.40;99.90;;;;;;4998631;28;20723;-50
2021/06/30 04:25:33;;;;;;;6.17;5.30;;;15.50;99.90;;;;;;5000351;28;20605;-51
2021/06/30 04:28:06;;;;;;;10.53;5.17;;;15.60;99.90;;;;;;4999139;28;20288;-51
2021/06/30 04:30:37;;;;;;;8.17;6.20;;;15.60;99.90;;;;;;5000769;28;20328;-51
2021/06/30 04:33:09;;;;;;;6.90;5.97;;;15.40;99.90;;;;;;4995543;28;20215;-51
2021/06/30 04:35:41;;;;;;;7.80;6.23;;;15.40;99.90;;;;;;5003581;28;20270;-51
2021/06/30 04:38:13;;;;;;;11.43;7.03;;;15.40;99.90;;;;;;4998499;28;20195;-51
2021/06/30 04:40:45;;;;;;;8.17;6.50;;;15.60;99.90;;;;;;4996542;28;20248;-51
2021/06/30 04:43:16;;;;;;;9.00;6.27;;;15.60;99.90;;;;;;4996712;28;20344;-51
2021/06/30 04:45:49;;;;;;;7.70;6.70;;;15.60;99.90;;;;;;4999506;28;20275;-51
2021/06/30 04:48:20;;;;;;;7.20;6.33;;;15.50;99.90;;;;;;4997186;28;20201;-50
2021/06/30 04:50:52;;;;;;;8.73;6.17;;;15.40;99.90;;;;;;4999840;28;20207;-51
2021/06/30 04:53:24;;;;;;;7.87;6.07;;;15.50;99.90;;;;;;4996741;28;20225;-50
2021/06/30 04:55:56;;;;;;;8.00;6.37;;;15.40;99.90;;;;;;4996014;28;20297;-51
2021/06/30 04:58:28;;;;;;;7.87;5.83;;;15.30;99.90;;;;;;5000721;28;20271;-51
2021/06/30 05:00:59;;;;;;;6.93;5.73;;;15.40;99.90;;;;;;4994435;28;20524;-51
2021/06/30 05:03:31;;;;;;;7.47;5.73;;;15.40;99.90;;;;;;4996344;28;20254;-51
2021/06/30 05:06:03;;;;;;;8.60;6.87;;;15.50;99.90;;;;;;4995905;28;20617;-52
2021/06/30 05:08:35;;;;;;;6.90;6.20;;;15.50;99.90;;;;;;4999715;28;20253;-51
2021/06/30 05:11:06;;;;;;;7.23;5.80;;;15.50;99.90;;;;;;5000325;28;20206;-51
2021/06/30 05:13:38;;;;;;;10.20;6.27;;;15.40;99.90;;;;;;4995055;28;20213;-51
2021/06/30 05:16:10;;;;;;;6.80;5.70;;;15.40;99.90;;;;;;4996234;28;20497;-51
2021/06/30 05:18:42;;;;;;;7.37;4.80;;;15.40;99.90;;;;;;4999215;28;20629;-50
2021/06/30 05:21:13;;;;;;;5.87;5.00;;;15.20;99.90;;;;;;5000436;28;20357;-50
2021/06/30 05:23:45;;;;;;;6.97;5.10;;;15.20;99.90;;;;;;4996411;28;20199;-50
2021/06/30 05:26:18;;;;;;;7.13;5.23;;;15.20;99.90;;;;;;4997704;28;20262;-50
2021/06/30 05:28:49;;;;;;;6.67;5.43;;;15.30;99.90;;;;;;5002249;28;20199;-51
2021/06/30 05:31:21;;;;;;;8.30;5.67;;;15.20;99.90;;;;;;5001393;28;20292;-51
2021/06/30 05:33:53;;;;;;;9.70;5.90;;;15.20;99.90;;;;;;4994431;28;20280;-51
2021/06/30 05:36:24;;;;;;;9.00;6.10;;;15.30;99.90;;;;;;4994335;28;20293;-51
2021/06/30 05:38:56;;;;;;;7.73;6.17;;;15.40;99.90;;;;;;4994767;28;21490;-51
2021/06/30 05:41:28;;;;;;;8.50;6.80;;;15.40;99.90;;;;;;5002569;28;20242;-51
2021/06/30 05:44:00;;;;;;;9.27;6.83;;;15.40;99.90;;;;;;4996991;28;20233;-51
2021/06/30 05:46:31;;;;;;;8.07;6.00;;;15.40;99.90;;;;;;5002822;28;20201;-51
2021/06/30 05:49:03;;;;;;;8.43;6.07;;;15.40;99.90;;;;;;5004485;28;20206;-51
2021/06/30 05:51:35;;;;;;;6.67;5.63;;;15.20;99.90;;;;;;5009431;28;20205;-51
2021/06/30 05:54:07;;;;;;;7.70;5.97;;;15.30;99.90;;;;;;5008929;28;20264;-51
2021/06/30 05:56:40;;;;;;;11.53;6.30;;;15.30;99.90;;;;;;5013875;28;20291;-50
2021/06/30 05:59:12;;;;;;;7.53;5.80;;;15.30;99.90;;;;;;5009328;28;20363;-52
2021/06/30 06:01:44;;;;;;;9.07;6.07;;;15.20;99.90;;;;;;5010335;28;20356;-51
2021/06/30 06:04:15;;;;;;;7.27;5.60;;;15.20;99.90;;;;;;5003640;28;20197;-52
2021/06/30 06:06:47;;;;;;;8.23;5.90;;;15.30;99.90;;;;;;5006001;28;20195;-51
2021/06/30 06:09:19;;;;;;;6.70;5.67;;;15.30;99.90;;;;;;5007521;28;20202;-51
2021/06/30 06:11:51;;;;;;;9.00;6.43;;;15.40;99.90;;;;;;5003672;28;20202;-52
2021/06/30 06:14:22;;;;;;;7.60;6.30;;;15.40;99.90;;;;;;5008596;28;20356;-51
2021/06/30 06:16:56;;;;;;;9.17;6.33;;;15.30;99.90;;;;;;4999909;28;20206;-52
2021/06/30 06:19:27;;;;;;;8.20;6.23;;;15.30;99.90;;;;;;5000307;28;20205;-51
2021/06/30 06:21:59;;;;;;;7.67;6.40;;;15.30;99.90;;;;;;5002921;28;20391;-51
2021/06/30 06:24:34;;;;;;;7.00;6.00;;;15.30;99.90;;;;;;5003225;28;20248;-51
2021/06/30 06:27:08;;;;;;;6.20;5.17;;;15.40;99.90;;;;;;5010608;28;20299;-51
2021/06/30 06:29:40;;;;;;;7.10;5.00;;;15.40;99.90;;;;;;5002414;28;20201;-51
2021/06/30 06:32:12;;;;;;;7.80;5.77;;;15.30;99.90;;;;;;5010653;28;20232;-51
2021/06/30 06:34:44;;;;;;;5.93;4.90;;;15.30;99.90;;;;;;5009769;28;20215;-51
2021/06/30 06:37:16;;;;;;;6.93;5.10;;;15.10;99.90;;;;;;5007467;28;20205;-51
2021/06/30 06:39:48;;;;;;;6.33;5.00;;;15.20;99.90;;;;;;5010572;28;20229;-51
2021/06/30 06:42:19;;;;;;;6.77;4.97;;;15.40;99.90;;;;;;5012634;28;20820;-51
2021/06/30 06:44:51;;;;;;;5.87;4.83;;;15.40;99.90;;;;;;5009195;28;20231;-51
2021/06/30 06:47:23;;;;;;;4.97;4.47;;;15.60;99.90;;;;;;5000170;28;20257;-51
2021/06/30 06:49:55;;;;;;;5.23;4.30;;;15.50;99.90;;;;;;5008200;28;20260;-51
2021/06/30 06:52:26;;;;;;;4.80;4.17;;;15.20;99.90;;;;;;4998699;28;20639;-51
2021/06/30 06:54:59;;;;;;;5.57;4.43;;;15.20;99.90;;;;;;5006807;28;20304;-51
2021/06/30 06:57:31;;;;;;;5.57;4.17;;;15.40;99.90;;;;;;5002395;28;20199;-51
2021/06/30 07:00:07;;;;;;;5.20;4.33;;;15.40;99.90;;;;;;5000137;28;20202;-51
2021/06/30 07:02:38;;;;;;;7.93;4.30;;;15.40;99.90;;;;;;5003009;28;20998;-51
2021/06/30 07:05:10;;;;;;;4.27;3.47;;;15.40;99.90;;;;;;5004500;28;20203;-50
2021/06/30 07:07:43;;;;;;;5.80;4.17;;;15.40;99.90;;;;;;5013034;28;20696;-51
2021/06/30 07:10:15;;;;;;;6.17;4.57;;;15.20;99.90;;;;;;4993725;28;20203;-50
2021/06/30 07:12:47;;;;;;;5.27;4.50;;;15.10;99.90;;;;;;5001075;28;20237;-51
2021/06/30 07:15:19;;;;;;;4.73;4.23;;;15.30;99.90;;;;;;5004930;28;20214;-52
2021/06/30 07:17:51;;;;;;;5.20;3.90;;;15.40;99.90;;;;;;5003466;28;20348;-50
2021/06/30 07:20:22;;;;;;;4.00;3.60;;;15.60;99.90;;;;;;5007616;28;20339;-52
2021/06/30 07:22:54;;;;;;;5.20;3.87;;;15.60;99.90;;;;;;5006175;28;20212;-51
2021/06/30 07:25:26;;;;;;;5.90;3.87;;;15.60;99.90;;;;;;5007338;28;20189;-51
2021/06/30 07:27:58;;;;;;;5.03;3.40;;;15.50;99.90;;;;;;5006951;28;20199;-51
2021/06/30 07:30:30;;;;;;;5.40;4.17;;;15.50;99.90;;;;;;5002251;28;20637;-51
2021/06/30 07:33:02;;;;;;;4.70;3.63;;;15.60;99.90;;;;;;5001586;28;20572;-51
2021/06/30 07:35:34;;;;;;;3.83;3.40;;;15.60;99.90;;;;;;5005124;28;20707;-51
2021/06/30 07:38:07;;;;;;;4.63;3.93;;;15.60;99.90;;;;;;5006112;28;20249;-51
2021/06/30 07:40:39;;;;;;;4.00;3.57;;;15.60;99.90;;;;;;5003422;28;20285;-51
2021/06/30 07:43:11;;;;;;;4.37;3.80;;;15.70;99.90;;;;;;5006014;28;20244;-51
2021/06/30 07:45:41;;;;;;;5.87;3.40;;;15.70;99.90;;;;;;5002913;28;20379;-52
2021/06/30 07:48:08;;;;;;;4.30;3.80;;;15.70;99.90;;;;;;5003528;28;20298;-51
2021/06/30 07:50:35;;;;;;;4.40;4.00;;;15.60;99.90;;;;;;5002925;28;20259;-51
2021/06/30 07:53:02;;;;;;;6.67;3.87;;;15.60;99.90;;;;;;5004492;28;20198;-51
2021/06/30 07:55:29;;;;;;;4.70;3.90;;;15.70;99.90;;;;;;5002242;28;20198;-52
2021/06/30 07:57:56;;;;;;;4.63;4.17;;;15.70;99.90;;;;;;5001138;28;20197;-52
2021/06/30 08:00:23;;;;;;;5.13;4.10;;;15.70;99.90;;;;;;5002770;28;20605;-51
2021/06/30 08:02:50;;;;;;;4.30;3.60;;;15.60;99.90;;;;;;4997400;28;20300;-51
2021/06/30 08:05:16;;;;;;;4.67;4.17;;;15.60;99.90;;;;;;5004963;28;20243;-51
2021/06/30 08:07:43;;;;;;;5.37;4.30;;;15.50;99.90;;;;;;5006777;28;20227;-51
2021/06/30 08:10:10;;;;;;;5.83;4.17;;;15.70;99.90;;;;;;5001949;28;20662;-50
2021/06/30 08:12:37;;;;;;;5.63;4.70;;;15.80;99.90;;;;;;4999724;28;20703;-51
2021/06/30 08:15:06;;;;;;;5.37;4.33;;;15.90;99.90;;;;;;5000644;28;20481;-52
2021/06/30 08:17:33;;;;;;;6.60;4.87;;;15.90;99.90;;;;;;4993840;28;20274;-51
2021/06/30 08:20:00;;;;;;;5.50;4.83;;;15.90;99.90;;;;;;5001455;28;20597;-51
2021/06/30 08:22:28;;;;;;;5.77;5.13;;;15.90;99.90;;;;;;4999226;28;20252;-51
2021/06/30 08:24:55;;;;;;;6.50;5.03;;;15.80;99.90;;;;;;4998842;28;20331;-51
2021/06/30 08:27:22;;;;;;;6.17;5.03;;;15.90;99.90;;;;;;4996802;28;20200;-51
2021/06/30 08:29:49;;;;;;;5.77;5.17;;;16.00;99.90;;;;;;5002546;28;20635;-51
2021/06/30 08:32:16;;;;;;;6.00;5.40;;;16.00;99.90;;;;;;5006874;28;20227;-51
2021/06/30 08:34:43;;;;;;;8.20;5.37;;;15.90;99.90;;;;;;4999771;28;20649;-51
2021/06/30 08:37:11;;;;;;;9.70;6.50;;;15.90;99.90;;;;;;4992682;28;20632;-51
2021/06/30 08:39:38;;;;;;;6.87;6.17;;;15.90;99.90;;;;;;4996039;28;20298;-51
2021/06/30 08:42:06;;;;;;;7.73;6.03;;;15.90;99.90;;;;;;5007111;28;20311;-51
2021/06/30 08:44:35;;;;;;;9.50;6.37;;;15.80;99.90;;;;;;5006282;28;20328;-51
2021/06/30 08:47:03;;;;;;;6.40;5.33;;;15.80;99.90;;;;;;5005655;28;20206;-51
2021/06/30 08:49:32;;;;;;;7.73;5.30;;;15.80;99.90;;;;;;5008652;28;20307;-51
2021/06/30 08:51:59;;;;;;;8.77;5.90;;;15.90;99.90;;;;;;4999993;28;20293;-51
2021/06/30 08:54:26;;;;;;;6.47;5.00;;;16.00;99.90;;;;;;5006850;28;20233;-51
2021/06/30 08:56:55;;;;;;;5.60;4.90;;;16.00;99.90;;;;;;5007629;28;20673;-51
2021/06/30 08:59:23;;;;;;;7.43;5.73;;;16.10;99.90;;;;;;5010262;28;20257;-51
2021/06/30 09:01:49;;;;;;;7.20;5.70;;;16.10;99.90;;;;;;5017149;28;20220;-51
2021/06/30 09:04:16;;;;;;;8.63;6.23;;;16.00;99.90;;;;;;5000437;28;20257;-49
2021/06/30 09:06:43;;;;;;;7.53;6.20;;;16.10;99.90;;;;;;4998920;28;20268;-49
2021/06/30 09:09:13;;;;;;;6.43;4.83;;;16.10;99.90;;;;;;5000168;28;20820;-49
2021/06/30 09:11:41;;;;;;;5.53;4.63;;;16.20;99.90;;;;;;4999513;28;20206;-51
2021/06/30 09:14:18;;;;;;;6.27;5.07;;;15.90;99.90;;;;;;5005478;28;20457;-50
2021/06/30 09:17:07;;;;;;;7.33;5.20;;;16.00;99.90;;;;;;4999998;28;20241;-49
2021/06/30 09:20:00;;;;;;;7.93;4.50;;;15.80;99.90;;;;;;4999712;28;20203;-50
2021/06/30 09:22:37;;;;;;;7.37;4.80;;;16.00;99.90;;;;;;4996834;28;20243;-51
2021/06/30 09:25:50;;;;;;;6.03;5.03;;;16.10;99.90;;;;;;5006315;28;20198;-49
2021/06/30 09:28:21;;;;;;;6.47;5.10;;;15.90;99.90;;;;;;5003068;28;20289;-51
2021/06/30 09:31:15;;;;;;;6.43;4.97;;;16.10;99.90;;;;;;5007516;28;20272;-49
2021/06/30 09:33:50;;;;;;;7.10;5.00;;;16.00;99.90;;;;;;5008105;28;20665;-51
2021/06/30 09:36:18;;;;;;;6.50;4.70;;;16.00;99.90;;;;;;5006122;28;20578;-50
2021/06/30 09:38:45;;;;;;;9.87;4.90;;;16.20;99.90;;;;;;5010288;28;20351;-50
2021/06/30 09:41:27;;;;;;;4.93;4.07;;;16.10;99.90;;;;;;5002402;28;20506;-50
2021/06/30 09:44:12;;;;;;;5.87;4.37;;;16.10;99.90;;;;;;5010544;28;20234;-51
2021/06/30 09:46:43;;;;;;;5.13;4.20;;;16.30;99.90;;;;;;5004588;28;20441;-50
2021/06/30 09:49:12;;;;;;;5.90;3.43;;;16.30;99.90;;;;;;5013618;28;20291;-50
2021/06/30 09:51:41;;;;;;;6.23;4.03;;;16.20;99.90;;;;;;5006832;28;20278;-50
2021/06/30 09:54:11;;;;;;;6.00;4.23;;;16.20;99.90;;;;;;5008373;28;20198;-50
2021/06/30 09:56:40;;;;;;;4.90;4.10;;;16.10;99.90;;;;;;5007275;28;20233;-50
2021/06/30 09:59:18;;;;;;;5.00;4.10;;;16.10;99.90;;;;;;5005583;28;20292;-50
2021/06/30 10:02:02;;;;;;;4.33;3.90;;;16.20;99.90;;;;;;5000709;28;20313;-50
2021/06/30 10:04:32;;;;;;;4.87;4.23;;;16.20;99.90;;;;;;5011048;28;20613;-51
2021/06/30 10:07:02;;;;;;;4.67;3.70;;;16.10;99.90;;;;;;4999958;28;20620;-50
2021/06/30 10:09:30;;;;;;;5.27;3.70;;;16.20;99.90;;;;;;5009286;28;20577;-53
2021/06/30 10:12:20;;;;;;;6.00;3.60;;;16.10;99.90;;;;;;5011181;28;20302;-51
2021/06/30 10:14:48;;;;;;;5.13;3.90;;;16.30;99.90;;;;;;5007709;28;20585;-50
2021/06/30 10:17:15;;;;;;;4.50;3.63;;;16.30;99.90;;;;;;5003195;28;20446;-51
2021/06/30 10:19:46;;;;;;;4.60;3.43;;;16.40;99.90;;;;;;5008069;28;20224;-50
2021/06/30 10:22:22;;;;;;;5.03;4.53;;;16.40;99.90;;;;;;5004448;28;20223;-51
2021/06/30 10:24:49;;;;;;;5.47;4.27;;;16.20;99.90;;;;;;5008491;28;20236;-51
2021/06/30 10:27:16;;;;;;;6.17;4.50;;;16.20;99.90;;;;;;5006654;28;20199;-51
2021/06/30 10:29:52;;;;;;;6.10;4.00;;;16.30;99.90;;;;;;5004845;28;20236;-51
2021/06/30 10:32:19;;;;;;;4.17;3.77;;;16.40;99.90;;;;;;4999508;28;20345;-51
2021/06/30 10:34:51;;;;;;;5.17;3.83;;;16.40;99.90;;;;;;4998537;28;20532;-50
2021/06/30 10:37:41;;;;;;;5.17;3.63;;;16.20;99.90;;;;;;5015863;28;20948;-51
2021/06/30 10:40:14;;;;;;;4.40;3.90;;;16.00;99.90;;;;;;5001571;28;20683;-51
2021/06/30 10:42:48;;;;;;;4.63;4.10;;;16.00;99.90;;;;;;5004582;28;20792;-51
2021/06/30 10:45:15;;;;;;;4.27;3.80;;;16.30;99.90;;;;;;5011041;28;20298;-51
2021/06/30 10:47:54;;;;;;;5.07;4.30;;;16.40;99.90;;;;;;5004713;28;20199;-51
2021/06/30 10:50:43;;;;;;;5.57;4.40;;;16.30;99.90;;;;;;5009781;28;20201;-51
2021/06/30 10:53:11;;;;;;;7.13;4.93;;;16.20;99.90;;;;;;5008804;28;20265;-50
2021/06/30 10:55:47;;;;;;;7.27;4.80;;;16.20;99.90;;;;;;5007420;28;20295;-52
2021/06/30 10:58:16;;;;;;;5.00;4.13;;;16.40;99.90;;;;;;5010623;28;20272;-51
2021/06/30 11:00:50;;;;;;;5.03;4.23;;;16.30;99.90;;;;;;5013172;28;20288;-51
2021/06/30 11:03:26;;;;;;;4.60;3.93;;;16.20;99.90;;;;;;5001712;28;20235;-51
2021/06/30 11:06:26;;;;;;;6.03;4.30;;;16.20;99.90;;;;;;5003751;28;20284;-51
2021/06/30 11:09:09;;;;;;;7.90;4.80;;;16.40;99.90;;;;;;4999695;28;20310;-50
2021/06/30 11:11:36;;;;;;;6.30;4.60;;;16.30;99.90;;;;;;5003677;28;20355;-50
2021/06/30 11:14:10;;;;;;;5.30;4.67;;;16.30;99.90;;;;;;5002032;28;20607;-50
2021/06/30 11:16:36;;;;;;;7.00;5.50;;;16.40;99.90;;;;;;5003248;28;20732;-49
2021/06/30 11:19:05;;;;;;;7.17;5.63;;;16.50;99.90;;;;;;4998754;28;20526;-50
2021/06/30 11:21:52;;;;;;;7.83;4.60;;;16.70;99.90;;;;;;5007274;28;20674;-52
2021/06/30 11:24:38;;;;;;;5.20;4.43;;;16.40;99.90;;;;;;5000372;28;20195;-50
2021/06/30 11:29:51;;;;;;;7.33;5.50;;;16.60;99.90;;;;;;4999668;28;20320;-50
2021/06/30 11:32:36;;;;;;;6.50;5.70;;;16.80;99.90;;;;;;4998278;28;20250;-50
2021/06/30 11:35:13;;;;;;;7.70;5.33;;;16.80;99.90;;;;;;4999985;28;20204;-51
2021/06/30 11:37:42;;;;;;;5.67;4.97;;;16.70;99.90;;;;;;5001301;28;20284;-50
2021/06/30 11:40:21;;;;;;;6.07;4.77;;;16.80;99.90;;;;;;5003360;28;20234;-50
2021/06/30 11:42:50;;;;;;;6.27;5.20;;;16.70;99.90;;;;;;5005875;28;20226;-49
2021/06/30 11:45:19;;;;;;;7.30;5.00;;;16.70;99.90;;;;;;5007004;28;20258;-50
2021/06/30 11:47:50;;;;;;;6.60;4.83;;;17.00;99.90;;;;;;5006908;28;20205;-50
2021/06/30 11:50:18;;;;;;;6.23;4.50;;;16.80;99.90;;;;;;5004291;28;20613;-51
2021/06/30 11:52:46;;;;;;;7.20;5.13;;;16.70;99.90;;;;;;4994279;28;20230;-50
2021/06/30 11:55:19;;;;;;;8.30;4.70;;;17.00;99.90;;;;;;5001928;28;20262;-50
2021/06/30 11:57:49;;;;;;;7.47;3.80;;;16.90;99.90;;;;;;5008306;28;20352;-51
2021/06/30 12:00:17;;;;;;;6.63;4.17;;;16.80;99.90;;;;;;5008073;28;20266;-50
2021/06/30 12:02:48;;;;;;;5.07;3.43;;;16.90;99.90;;;;;;4996790;28;20224;-51
2021/06/30 12:05:16;;;;;;;5.47;4.40;;;16.90;99.90;;;;;;4996566;28;20247;-50
2021/06/30 12:07:45;;;;;;;6.60;4.20;;;16.80;99.90;;;;;;4994989;28;20297;-51
2021/06/30 12:10:13;;;;;;;4.83;3.93;;;16.90;99.90;;;;;;4999051;28;20285;-51
2021/06/30 12:12:40;;;;;;;5.10;3.73;;;16.90;99.90;;;;;;4992208;28;20234;-50
2021/06/30 12:15:09;;;;;;;4.27;3.30;;;16.80;99.90;;;;;;5000223;28;20209;-51
2021/06/30 12:17:36;;;;;;;4.10;3.70;;;16.60;99.90;;;;;;4995420;28;20477;-50
2021/06/30 12:20:06;;;;;;;4.30;3.47;;;16.80;99.90;;;;;;4998051;28;20220;-52
2021/06/30 12:22:37;;;;;;;6.23;3.33;;;16.90;99.90;;;;;;4996468;28;20246;-51
2021/06/30 12:25:22;;;;;;;7.40;3.83;;;16.90;99.90;;;;;;4997635;28;20195;-51
2021/06/30 12:28:01;;;;;;;5.70;3.60;;;16.70;99.90;;;;;;4990895;28;20237;-51
2021/06/30 12:30:31;;;;;;;4.93;4.03;;;16.90;99.90;;;;;;4994703;28;20824;-51
2021/06/30 12:33:01;;;;;;;8.63;4.13;;;16.60;99.90;;;;;;4991523;28;20422;-51
2021/06/30 12:35:33;;;;;;;7.17;4.43;;;16.60;99.90;;;;;;4991035;28;20197;-51
2021/06/30 12:38:06;;;;;;;6.00;4.70;;;16.60;99.90;;;;;;4998671;28;20287;-51
2021/06/30 12:40:48;;;;;;;7.17;5.63;;;16.40;99.90;;;;;;4998432;28;20298;-52
2021/06/30 12:43:19;;;;;;;7.47;5.60;;;16.50;99.90;;;;;;5001283;28;20281;-50
2021/06/30 12:45:48;;;;;;;7.07;5.40;;;16.50;99.90;;;;;;5001856;28;20236;-50
2021/06/30 12:48:17;;;;;;;6.77;5.17;;;16.60;99.90;;;;;;4994186;28;20256;-50
2021/06/30 12:50:46;;;;;;;5.97;4.83;;;16.60;99.90;;;;;;4998700;28;20201;-50
2021/06/30 12:53:24;;;;;;;7.57;5.27;;;16.80;99.90;;;;;;5002101;28;20212;-51
2021/06/30 12:56:06;;;;;;;7.77;6.20;;;16.90;99.90;;;;;;4995934;28;20204;-51
2021/06/30 12:58:48;;;;;;;8.43;5.83;;;16.90;99.90;;;;;;4990627;28;20220;-50
2021/06/30 13:01:16;;;;;;;8.27;6.63;;;16.80;99.90;;;;;;5005562;28;20238;-50
2021/06/30 13:03:46;;;;;;;9.53;7.07;;;16.80;99.90;;;;;;5000381;28;20210;-50
2021/06/30 13:06:20;;;;;;;8.23;6.60;;;16.60;99.90;;;;;;4997844;28;20222;-50
2021/06/30 13:09:10;;;;;;;9.70;7.07;;;16.80;99.90;;;;;;4995748;28;20204;-50
2021/06/30 13:12:00;;;;;;;7.73;6.73;;;16.80;99.90;;;;;;5002827;28;20527;-51
2021/06/30 13:14:32;;;;;;;11.60;7.67;;;16.80;99.90;;;;;;4996915;28;20225;-50